createdAt,value
2018-12-12T00:02:13.841Z,99985.37
2018-12-12T00:06:18.794Z,99983.94
2018-12-12T00:10:23.854Z,99984.78
2018-12-12T00:14:29.125Z,99986.02
2018-12-12T00:18:34.084Z,99991.49
2018-12-12T00:22:39.050Z,99997.36
2018-12-12T00:26:43.987Z,99997.72
2018-12-12T00:30:48.923Z,99998.55
2018-12-12T00:34:53.847Z,99998.20
2018-12-12T00:38:58.818Z,100003.27
2018-12-12T00:43:04.071Z,100010.56
2018-12-12T00:47:09.083Z,100013.99
2018-12-12T00:51:14.069Z,100013.99
2018-12-12T00:55:19.031Z,100016.17
2018-12-12T00:59:24.877Z,100006.88
2018-12-12T01:03:29.857Z,100016.87
2018-12-12T01:07:34.907Z,100018.45
2018-12-12T01:11:58.469Z,100022.67
2018-12-12T01:16:03.478Z,100023.37
2018-12-12T01:20:08.539Z,100022.15
2018-12-12T01:24:13.634Z,100022.08
2018-12-12T01:28:18.588Z,100024.50
2018-12-12T01:32:23.645Z,100025.30
2018-12-12T01:36:29.234Z,100032.14
2018-12-12T01:40:34.584Z,100026.14
2018-12-12T01:44:39.602Z,100022.78
2018-12-12T01:48:44.589Z,100022.05
2018-12-12T01:52:49.744Z,100024.36
2018-12-12T01:56:54.802Z,100017.98
2018-12-12T02:00:59.783Z,100024.17
2018-12-12T02:05:04.772Z,100021.13
2018-12-12T02:09:09.696Z,100020.91
2018-12-12T02:13:35.109Z,100017.68
2018-12-12T02:17:40.120Z,100021.16
2018-12-12T02:21:45.103Z,100024.38
2018-12-12T02:25:50.067Z,100022.23
2018-12-12T02:29:55.609Z,100025.89
2018-12-12T02:34:00.831Z,100022.34
2018-12-12T02:38:05.862Z,100023.93
2018-12-12T02:42:10.906Z,100025.90
2018-12-12T02:46:16.016Z,100026.31
2018-12-12T02:50:20.923Z,100026.31
2018-12-12T02:54:25.875Z,100025.02
2018-12-12T02:58:30.867Z,100023.72
2018-12-12T03:06:48.237Z,100023.96
2018-12-12T03:10:53.322Z,100026.34
2018-12-12T03:14:58.432Z,100023.95
2018-12-12T03:19:03.445Z,100027.42
2018-12-12T03:23:08.435Z,100026.48
2018-12-12T03:27:13.353Z,100024.98
2018-12-12T03:31:18.272Z,100029.16
2018-12-12T03:35:23.218Z,100024.53
2018-12-12T03:39:28.174Z,100030.56
2018-12-12T03:43:33.231Z,100032.31
2018-12-12T03:47:38.227Z,100032.88
2018-12-12T03:51:50.837Z,100028.20
2018-12-12T03:55:55.810Z,100026.63
2018-12-12T04:00:00.761Z,100031.39
2018-12-12T04:04:05.841Z,100030.01
2018-12-12T04:08:10.773Z,100028.27
2018-12-12T04:12:15.721Z,100019.97
2018-12-12T04:16:20.851Z,100022.80
2018-12-12T04:20:25.850Z,100024.36
2018-12-12T04:24:30.848Z,100025.50
2018-12-12T04:28:35.805Z,100026.64
2018-12-12T04:32:40.937Z,100024.14
2018-12-12T04:36:45.959Z,100026.12
2018-12-12T04:40:50.932Z,100034.43
2018-12-12T04:44:55.807Z,100043.39
2018-12-12T04:49:00.785Z,100042.00
2018-12-12T04:53:05.775Z,100052.19
2018-12-12T04:57:10.719Z,100052.42
2018-12-12T05:01:15.733Z,100052.70
2018-12-12T05:05:20.822Z,100058.19
2018-12-12T05:09:26.031Z,100059.84
2018-12-12T05:13:30.962Z,100062.80
2018-12-12T05:17:35.905Z,100070.03
2018-12-12T05:21:40.779Z,100067.66
2018-12-12T05:25:45.707Z,100064.69
2018-12-12T05:29:50.981Z,100072.42
2018-12-12T05:33:55.998Z,100076.35
2018-12-12T05:42:11.101Z,100086.45
2018-12-12T05:46:16.081Z,100085.92
2018-12-12T05:50:21.030Z,100092.41
2018-12-12T05:54:25.977Z,100097.53
2018-12-12T05:58:30.944Z,100097.92
2018-12-12T06:02:35.832Z,100097.11
2018-12-12T06:06:40.774Z,100100.80
2018-12-12T06:10:45.739Z,100105.78
2018-12-12T06:14:51.162Z,100108.62
2018-12-12T06:18:56.120Z,100117.28
2018-12-12T06:23:01.091Z,100116.86
2018-12-12T06:27:07.550Z,100118.08
2018-12-12T06:31:13.202Z,100114.91
2018-12-12T06:35:18.155Z,100131.58
2018-12-12T06:39:23.144Z,100126.16
2018-12-12T06:43:28.011Z,100124.22
2018-12-12T06:47:32.931Z,100132.52
2018-12-12T06:51:37.905Z,100147.88
2018-12-12T06:55:42.893Z,100147.42
2018-12-12T06:59:47.894Z,100143.33
2018-12-12T07:03:52.887Z,100143.55
2018-12-12T07:07:57.861Z,100148.36
2018-12-12T07:12:02.787Z,100157.62
2018-12-12T07:16:07.743Z,100167.44
2018-12-12T07:20:13.137Z,100169.00
2018-12-12T07:24:18.114Z,100170.89
2018-12-12T07:28:23.133Z,100178.89
2018-12-12T07:32:28.517Z,100179.55
2018-12-12T07:36:33.490Z,100178.96
2018-12-12T07:40:38.360Z,100190.08
2018-12-12T07:44:44.383Z,100194.20
2018-12-12T07:48:49.287Z,100192.31
2018-12-12T07:52:54.236Z,100193.97
2018-12-12T07:56:59.346Z,100197.73
2018-12-12T08:01:04.235Z,100199.57
2018-12-12T08:05:09.370Z,100200.84
2018-12-12T08:09:14.388Z,100211.61
2018-12-12T08:13:19.273Z,100215.06
2018-12-12T08:17:24.695Z,100218.11
2018-12-12T08:21:29.729Z,100221.42
2018-12-12T08:30:00.621Z,100229.21
2018-12-12T08:34:05.985Z,100233.25
2018-12-12T08:38:10.989Z,100233.84
2018-12-12T08:42:16.016Z,100240.69
2018-12-12T08:46:21.063Z,100245.11
2018-12-12T08:50:25.965Z,100252.83
2018-12-12T08:54:30.942Z,100258.73
2018-12-12T08:58:35.919Z,100257.16
2018-12-12T09:02:40.901Z,100257.61
2018-12-12T09:06:45.875Z,100274.72
2018-12-12T09:10:50.842Z,100275.66
2018-12-12T09:14:55.879Z,100275.73
2018-12-12T09:19:00.857Z,100275.59
2018-12-12T09:23:05.920Z,100279.03
2018-12-12T09:27:10.888Z,100272.19
2018-12-12T09:31:15.841Z,100272.99
2018-12-12T09:35:20.833Z,100278.27
2018-12-12T09:39:25.888Z,100274.08
2018-12-12T09:43:30.873Z,100277.52
2018-12-12T09:47:36.314Z,100268.77
2018-12-12T09:51:41.292Z,100278.40
2018-12-12T09:55:46.184Z,100283.67
2018-12-12T09:59:51.192Z,100277.52
2018-12-12T10:03:56.820Z,100279.91
2018-12-12T10:08:01.806Z,100280.49
2018-12-12T10:12:06.790Z,100275.78
2018-12-12T10:16:11.772Z,100279.47
2018-12-12T10:20:16.761Z,100273.06
2018-12-12T10:28:33.948Z,100270.52
2018-12-12T10:32:38.927Z,100272.89
2018-12-12T10:36:43.925Z,100267.20
2018-12-12T10:40:48.822Z,100272.89
2018-12-12T10:44:54.130Z,100261.41
2018-12-12T10:48:59.510Z,100261.55
2018-12-12T10:53:04.472Z,100263.05
2018-12-12T10:57:09.534Z,100262.26
2018-12-12T11:01:33.134Z,100265.05
2018-12-12T11:05:38.121Z,100265.31
2018-12-12T11:09:43.117Z,100265.83
2018-12-12T11:13:48.151Z,100264.17
2018-12-12T11:17:53.164Z,100259.45
2018-12-12T11:21:58.203Z,100259.52
2018-12-12T11:26:03.167Z,100255.67
2018-12-12T11:30:08.276Z,100257.86
2018-12-12T11:34:13.239Z,100253.89
2018-12-12T11:38:18.313Z,100259.16
2018-12-12T11:42:23.346Z,100247.97
2018-12-12T11:46:28.748Z,100249.52
2018-12-12T11:50:33.731Z,100252.31
2018-12-12T11:54:38.940Z,100254.94
2018-12-12T11:58:43.833Z,100251.70
2018-12-12T12:02:48.871Z,100247.95
2018-12-12T12:06:54.389Z,100251.56
2018-12-12T12:10:59.458Z,100252.59
2018-12-12T12:15:04.417Z,100248.33
2018-12-12T12:19:09.509Z,100250.63
2018-12-12T12:23:14.546Z,100238.00
2018-12-12T12:27:19.549Z,100249.72
2018-12-12T12:31:24.646Z,100245.62
2018-12-12T12:35:29.609Z,100243.51
2018-12-12T12:39:34.631Z,100244.63
2018-12-12T12:43:39.598Z,100247.80
2018-12-12T12:47:44.561Z,100256.41
2018-12-12T12:51:49.580Z,100254.86
2018-12-12T12:55:57.570Z,100250.53
2018-12-12T13:00:02.586Z,100267.22
2018-12-12T13:04:09.896Z,100264.01
2018-12-12T13:08:14.499Z,100260.71
2018-12-12T13:12:19.583Z,100258.47
2018-12-12T13:16:24.590Z,100254.98
2018-12-12T13:20:29.622Z,100259.34
2018-12-12T13:24:34.534Z,100258.95
2018-12-12T13:28:39.510Z,100259.34
2018-12-12T13:32:44.449Z,100265.16
2018-12-12T13:36:49.427Z,100264.37
2018-12-12T13:40:54.408Z,100267.47
2018-12-12T13:44:59.390Z,100263.67
2018-12-12T13:49:04.395Z,100273.25
2018-12-12T13:53:09.364Z,100281.48
2018-12-12T13:57:14.282Z,100293.09
2018-12-12T14:01:19.405Z,100289.97
2018-12-12T14:05:24.404Z,100292.94
2018-12-12T14:09:29.409Z,100301.94
2018-12-12T14:13:34.392Z,100302.53
2018-12-12T14:17:39.358Z,100316.73
2018-12-12T14:21:44.349Z,100315.64
2018-12-12T14:25:49.365Z,100313.26
2018-12-12T14:29:54.301Z,100310.46
2018-12-12T14:33:59.300Z,100314.36
2018-12-12T14:38:04.245Z,100310.73
2018-12-12T14:42:09.189Z,100310.96
2018-12-12T14:46:14.162Z,100310.76
2018-12-12T14:50:19.151Z,100310.55
2018-12-12T14:54:24.120Z,100321.53
2018-12-12T14:58:29.066Z,100319.63
2018-12-12T15:02:33.970Z,100328.17
2018-12-12T15:06:38.869Z,100324.20
2018-12-12T15:10:43.826Z,100330.03
2018-12-12T15:14:48.769Z,100327.64
2018-12-12T15:18:53.724Z,100331.36
2018-12-12T15:22:58.825Z,100335.11
2018-12-12T15:27:03.781Z,100333.14
2018-12-12T15:31:08.772Z,100327.58
2018-12-12T15:35:13.764Z,100327.72
2018-12-12T15:39:37.543Z,100326.06
2018-12-12T15:43:42.567Z,100326.67
2018-12-12T15:47:47.612Z,100324.03
2018-12-12T15:51:52.523Z,100329.48
2018-12-12T15:55:58.046Z,100332.80
2018-12-12T16:00:03.053Z,100331.92
2018-12-12T16:04:07.988Z,100337.78
2018-12-12T16:08:12.994Z,100339.67
2018-12-12T16:12:17.917Z,100344.66
2018-12-12T16:16:22.806Z,100346.94
2018-12-12T16:20:27.871Z,100355.69
2018-12-12T16:24:32.852Z,100355.63
2018-12-12T16:28:37.860Z,100350.78
2018-12-12T16:32:42.906Z,100360.62
2018-12-12T16:36:47.828Z,100352.95
2018-12-12T16:40:52.742Z,100354.67
2018-12-12T16:44:57.756Z,100354.74
2018-12-12T16:49:02.912Z,100346.58
2018-12-12T16:53:07.891Z,100350.84
2018-12-12T16:57:12.924Z,100350.78
2018-12-12T17:01:18.095Z,100347.75
2018-12-12T17:05:23.198Z,100344.56
2018-12-12T17:09:29.826Z,100341.40
2018-12-12T17:13:34.794Z,100345.23
2018-12-12T17:17:39.908Z,100348.78
2018-12-12T17:21:45.910Z,100347.16
2018-12-12T17:25:50.877Z,100344.27
2018-12-12T17:29:55.825Z,100339.95
2018-12-12T17:34:00.767Z,100340.44
2018-12-12T17:38:05.647Z,100342.68
2018-12-12T17:42:10.602Z,100355.34
2018-12-12T17:46:15.640Z,100357.45
2018-12-12T17:50:20.540Z,100353.91
2018-12-12T17:54:25.485Z,100358.16
2018-12-12T17:58:30.450Z,100373.77
2018-12-12T18:02:35.444Z,100375.87
2018-12-12T18:06:40.420Z,100369.73
2018-12-12T18:10:45.394Z,100375.77
2018-12-12T18:14:50.406Z,100371.03
2018-12-12T18:18:55.433Z,100377.08
2018-12-12T18:23:00.422Z,100381.27
2018-12-12T18:27:05.380Z,100385.77
2018-12-12T18:31:10.273Z,100389.06
2018-12-12T18:35:21.739Z,100393.70
2018-12-12T18:39:22.192Z,100393.95
2018-12-12T18:43:27.155Z,100391.14
2018-12-12T18:47:32.134Z,100395.60
2018-12-12T18:51:37.029Z,100390.26
2018-12-12T18:55:42.009Z,100385.48
2018-12-12T18:59:47.373Z,100402.31
2018-12-12T19:03:52.293Z,100390.39
2018-12-12T19:07:57.234Z,100399.91
2018-12-12T19:12:02.209Z,100403.67
2018-12-12T19:16:07.131Z,100398.07
2018-12-12T19:20:12.180Z,100408.73
2018-12-12T19:24:17.109Z,100405.58
2018-12-12T19:28:22.080Z,100405.30
2018-12-12T19:32:27.071Z,100405.02
2018-12-12T19:36:32.005Z,100412.16
2018-12-12T19:40:37.232Z,100420.29
2018-12-12T19:44:43.471Z,100415.86
2018-12-12T19:48:48.572Z,100410.98
2018-12-12T19:52:53.716Z,100407.29
2018-12-12T19:57:37.934Z,100414.15
2018-12-12T20:01:45.805Z,100416.86
2018-12-12T20:05:51.210Z,100418.66
2018-12-12T20:09:56.239Z,100423.50
2018-12-12T20:14:01.340Z,100423.16
2018-12-12T20:18:06.438Z,100423.16
2018-12-12T20:22:11.483Z,100427.55
2018-12-12T20:26:16.560Z,100428.84
2018-12-12T20:30:21.524Z,100430.61
2018-12-12T20:34:26.438Z,100431.45
2018-12-12T20:38:31.379Z,100432.67
2018-12-12T20:42:36.354Z,100435.70
2018-12-12T20:46:41.215Z,100427.41
2018-12-12T20:50:46.211Z,100431.66
2018-12-12T20:54:51.183Z,100431.51
2018-12-12T20:58:56.294Z,100429.61
2018-12-12T21:03:01.290Z,100427.48
2018-12-12T21:07:06.343Z,100424.80
2018-12-12T21:11:11.336Z,100429.73
2018-12-12T21:15:16.515Z,100433.90
2018-12-12T21:19:21.579Z,100434.70
2018-12-12T21:23:26.609Z,100440.70
2018-12-12T21:27:31.564Z,100454.19
2018-12-12T21:31:36.858Z,100460.39
2018-12-12T21:40:06.710Z,100460.92
2018-12-12T21:44:11.680Z,100460.84
2018-12-12T21:48:16.601Z,100462.76
2018-12-12T21:52:21.537Z,100455.08
2018-12-12T21:56:26.532Z,100460.72
2018-12-12T22:00:31.446Z,100461.59
2018-12-12T22:04:37.413Z,100465.52
2018-12-12T22:08:43.277Z,100466.35
2018-12-12T22:12:48.318Z,100473.88
2018-12-12T22:17:12.175Z,100470.52
2018-12-12T22:21:17.191Z,100464.80
2018-12-12T22:25:22.161Z,100469.25
2018-12-12T22:29:27.147Z,100472.87
2018-12-12T22:33:32.071Z,100477.44
2018-12-12T22:37:37.436Z,100466.16
2018-12-12T22:41:42.366Z,100472.91
2018-12-12T22:45:47.372Z,100472.28
2018-12-12T22:49:52.425Z,100469.40
2018-12-12T22:53:57.374Z,100473.77
2018-12-12T22:58:02.320Z,100473.06
2018-12-12T23:02:07.586Z,100478.50
2018-12-12T23:06:12.600Z,100474.95
2018-12-12T23:10:17.592Z,100475.83
2018-12-12T23:14:22.528Z,100476.06
2018-12-12T23:18:27.506Z,100476.16
2018-12-12T23:22:32.560Z,100483.84
2018-12-12T23:26:37.599Z,100476.02
2018-12-12T23:30:42.640Z,100476.59
2018-12-12T23:34:47.577Z,100475.03
2018-12-12T23:38:52.506Z,100474.72
2018-12-12T23:42:57.480Z,100479.62
2018-12-12T23:47:02.417Z,100475.73
2018-12-12T23:51:07.387Z,100480.05
2018-12-12T23:55:12.371Z,100480.25
2018-12-12T23:59:17.309Z,100474.77
